createdAt,value
2022-11-29T00:01:15.123Z,67.43
2022-11-29T00:03:41.869Z,66.95
2022-11-29T00:06:09.377Z,66.91
2022-11-29T00:08:36.209Z,67.43
2022-11-29T00:11:03.529Z,66.76
2022-11-29T00:13:29.956Z,66.94
2022-11-29T00:15:56.551Z,67.46
2022-11-29T00:18:22.972Z,67.39
2022-11-29T00:20:49.377Z,67.01
2022-11-29T00:23:15.784Z,66.98
2022-11-29T00:25:42.220Z,66.92
2022-11-29T00:28:08.624Z,66.56
2022-11-29T00:30:35.158Z,66.37
2022-11-29T00:33:03.141Z,66.34
2022-11-29T00:35:29.566Z,66.40
2022-11-29T00:37:55.973Z,66.31
2022-11-29T00:40:22.423Z,67.06
2022-11-29T00:42:48.846Z,67.59
2022-11-29T00:45:15.278Z,66.88
2022-11-29T00:47:41.709Z,67.51
2022-11-29T00:50:08.391Z,67.19
2022-11-29T00:52:35.202Z,67.12
2022-11-29T00:55:01.665Z,67.56
2022-11-29T00:57:28.135Z,68.11
2022-11-29T00:59:54.708Z,67.84
2022-11-29T01:02:21.178Z,68.49
2022-11-29T01:04:47.757Z,67.68
2022-11-29T01:07:14.291Z,67.84
2022-11-29T01:09:40.756Z,68.07
2022-11-29T01:12:07.257Z,68.09
2022-11-29T01:14:33.693Z,68.22
2022-11-29T01:17:00.185Z,68.46
2022-11-29T01:19:26.626Z,68.48
2022-11-29T01:21:53.138Z,68.22
2022-11-29T01:24:19.538Z,68.52
2022-11-29T01:26:46.018Z,68.13
2022-11-29T01:29:12.495Z,67.88
2022-11-29T01:31:39.013Z,67.82
2022-11-29T01:34:06.014Z,67.85
2022-11-29T01:36:32.571Z,68.20
2022-11-29T01:38:59.559Z,68.30
2022-11-29T01:41:26.874Z,68.42
2022-11-29T01:43:58.638Z,68.40
2022-11-29T01:46:25.344Z,68.16
2022-11-29T01:48:52.096Z,67.86
2022-11-29T01:51:18.585Z,68.11
2022-11-29T01:53:45.007Z,68.44
2022-11-29T01:56:11.525Z,68.05
2022-11-29T01:58:38.350Z,68.42
2022-11-29T02:01:04.857Z,68.42
2022-11-29T02:03:31.456Z,68.10
2022-11-29T02:05:57.944Z,68.38
2022-11-29T02:08:26.184Z,67.74
2022-11-29T02:11:07.668Z,68.32
2022-11-29T02:13:37.064Z,68.40
2022-11-29T02:16:05.275Z,67.94
2022-11-29T02:18:31.681Z,68.44
2022-11-29T02:21:19.978Z,69.18
2022-11-29T02:23:49.373Z,68.39
2022-11-29T02:26:22.032Z,69.30
2022-11-29T02:28:55.923Z,69.08
2022-11-29T02:31:41.174Z,68.69
2022-11-29T02:34:40.157Z,69.04
2022-11-29T02:37:12.865Z,68.94
2022-11-29T02:39:39.289Z,68.84
2022-11-29T02:42:11.791Z,68.41
2022-11-29T02:44:41.401Z,68.37
2022-11-29T02:47:26.728Z,67.95
2022-11-29T02:50:10.355Z,68.03
2022-11-29T02:52:39.774Z,68.20
2022-11-29T02:55:12.403Z,68.47
2022-11-29T02:57:54.184Z,68.08
2022-11-29T03:00:20.895Z,68.30
2022-11-29T03:02:47.306Z,67.86
2022-11-29T03:05:19.856Z,68.24
2022-11-29T03:07:53.812Z,68.53
2022-11-29T03:10:22.936Z,68.42
2022-11-29T03:12:49.847Z,68.34
2022-11-29T03:15:21.757Z,68.25
2022-11-29T03:18:23.784Z,68.44
2022-11-29T03:20:50.172Z,69.17
2022-11-29T03:23:16.561Z,69.29
2022-11-29T03:25:57.527Z,69.18
2022-11-29T03:28:42.976Z,69.55
2022-11-29T03:31:09.430Z,69.12
2022-11-29T03:33:38.961Z,69.09
2022-11-29T03:36:07.665Z,68.23
2022-11-29T03:38:37.185Z,69.17
2022-11-29T03:41:22.310Z,69.25
2022-11-29T03:43:48.782Z,68.64
2022-11-29T03:46:33.276Z,69.33
2022-11-29T03:49:01.797Z,69.04
2022-11-29T03:51:37.775Z,68.96
2022-11-29T03:54:07.974Z,68.69
2022-11-29T03:56:35.326Z,68.03
2022-11-29T03:59:01.689Z,68.35
2022-11-29T04:01:34.324Z,68.95
2022-11-29T04:04:03.717Z,68.31
2022-11-29T04:06:36.236Z,68.65
2022-11-29T04:09:08.830Z,68.40
2022-11-29T04:11:35.244Z,68.10
2022-11-29T04:14:21.908Z,68.21
2022-11-29T04:17:00.567Z,68.25
2022-11-29T04:19:30.186Z,68.12
2022-11-29T04:22:15.303Z,68.06
2022-11-29T04:24:45.080Z,68.70
2022-11-29T04:27:19.400Z,68.20
2022-11-29T04:30:04.616Z,67.92
2022-11-29T04:32:37.333Z,68.21
2022-11-29T04:35:13.050Z,68.23
2022-11-29T04:37:54.750Z,68.37
2022-11-29T04:40:21.206Z,67.36
2022-11-29T04:42:50.292Z,66.55
2022-11-29T04:45:16.689Z,67.16
2022-11-29T04:47:46.397Z,67.24
2022-11-29T04:50:15.633Z,67.24
2022-11-29T04:53:00.833Z,67.23
2022-11-29T04:55:36.426Z,67.02
2022-11-29T04:58:02.835Z,67.27
2022-11-29T05:00:29.257Z,66.95
2022-11-29T05:03:00.035Z,67.63
2022-11-29T05:05:45.460Z,67.68
2022-11-29T05:08:18.079Z,66.87
2022-11-29T05:10:47.647Z,67.43
2022-11-29T05:13:26.220Z,66.83
2022-11-29T05:16:11.670Z,66.96
2022-11-29T05:18:38.135Z,66.54
2022-11-29T05:21:19.509Z,66.60
2022-11-29T05:23:54.116Z,66.22
2022-11-29T05:26:27.197Z,66.36
2022-11-29T05:29:04.017Z,66.33
2022-11-29T05:31:30.779Z,66.85
2022-11-29T05:34:21.338Z,67.26
2022-11-29T05:37:06.139Z,66.83
2022-11-29T05:39:38.636Z,66.67
2022-11-29T05:42:08.204Z,67.24
2022-11-29T05:45:01.026Z,67.22
2022-11-29T05:47:32.591Z,67.63
2022-11-29T05:50:02.692Z,67.17
2022-11-29T05:52:39.964Z,67.14
2022-11-29T05:55:18.808Z,67.38
2022-11-29T05:57:51.288Z,67.52
2022-11-29T06:00:17.808Z,67.78
2022-11-29T06:02:44.257Z,67.23
2022-11-29T06:05:16.927Z,67.50
2022-11-29T06:07:48.366Z,67.96
2022-11-29T06:10:17.860Z,67.56
2022-11-29T06:12:57.248Z,67.21
2022-11-29T06:15:23.747Z,67.58
2022-11-29T06:18:13.291Z,67.70
2022-11-29T06:20:42.516Z,67.71
2022-11-29T06:23:12.229Z,67.35
2022-11-29T06:25:48.520Z,67.95
2022-11-29T06:28:23.012Z,67.81
2022-11-29T06:30:53.529Z,67.83
2022-11-29T06:33:23.863Z,67.21
2022-11-29T06:35:50.331Z,67.85
2022-11-29T06:38:16.763Z,68.11
2022-11-29T06:40:43.304Z,67.72
2022-11-29T06:43:09.829Z,67.55
2022-11-29T06:45:36.388Z,67.98
2022-11-29T06:48:03.914Z,67.03
2022-11-29T06:50:30.596Z,67.14
2022-11-29T06:53:11.634Z,67.35
2022-11-29T06:55:38.065Z,67.15
2022-11-29T06:58:15.042Z,66.76
2022-11-29T07:00:44.629Z,66.71
2022-11-29T07:03:29.573Z,67.21
2022-11-29T07:05:56.208Z,67.51
2022-11-29T07:08:23.172Z,67.64
2022-11-29T07:10:50.580Z,67.54
2022-11-29T07:13:17.807Z,66.94
2022-11-29T07:15:55.074Z,66.82
2022-11-29T07:18:21.522Z,66.90
2022-11-29T07:20:51.696Z,66.99
2022-11-29T07:23:36.367Z,67.01
2022-11-29T07:26:23.024Z,67.07
2022-11-29T07:28:53.039Z,66.63
2022-11-29T07:31:22.375Z,67.21
2022-11-29T07:33:54.558Z,67.18
2022-11-29T07:36:41.552Z,66.59
2022-11-29T07:39:10.782Z,66.20
2022-11-29T07:41:40.242Z,66.26
2022-11-29T07:44:09.999Z,66.26
2022-11-29T07:46:36.476Z,66.64
2022-11-29T07:49:02.903Z,66.87
2022-11-29T07:51:29.413Z,66.36
2022-11-29T07:53:55.979Z,66.07
2022-11-29T07:56:22.594Z,65.52
2022-11-29T07:58:49.105Z,65.79
2022-11-29T08:01:15.815Z,64.30
2022-11-29T08:03:42.331Z,64.86
2022-11-29T08:06:08.814Z,63.75
2022-11-29T08:08:39.213Z,64.71
2022-11-29T08:11:10.719Z,64.79
2022-11-29T08:13:37.359Z,64.50
2022-11-29T08:16:03.838Z,64.34
2022-11-29T08:18:30.301Z,63.97
2022-11-29T08:20:56.726Z,64.29
2022-11-29T08:23:23.145Z,64.36
2022-11-29T08:25:49.603Z,64.52
2022-11-29T08:28:16.232Z,64.01
2022-11-29T08:30:42.675Z,63.94
2022-11-29T08:33:09.272Z,64.22
2022-11-29T08:35:36.227Z,63.97
2022-11-29T08:38:04.047Z,63.75
2022-11-29T08:40:30.511Z,63.57
2022-11-29T08:42:57.611Z,62.94
2022-11-29T08:45:24.268Z,62.46
2022-11-29T08:47:50.664Z,62.76
2022-11-29T08:50:17.464Z,62.35
2022-11-29T08:53:03.030Z,61.55
2022-11-29T08:55:31.680Z,62.45
2022-11-29T08:58:05.304Z,62.90
2022-11-29T09:00:32.221Z,61.92
2022-11-29T09:03:18.658Z,61.36
2022-11-29T09:05:45.207Z,62.63
2022-11-29T09:08:11.787Z,61.69
2022-11-29T09:10:39.655Z,61.68
2022-11-29T09:13:06.479Z,61.01
2022-11-29T09:15:33.109Z,62.11
2022-11-29T09:17:59.534Z,61.92
2022-11-29T09:20:26.010Z,61.71
2022-11-29T09:22:52.837Z,61.10
2022-11-29T09:25:43.255Z,62.43
2022-11-29T09:28:11.415Z,60.73
2022-11-29T09:30:38.211Z,61.74
2022-11-29T09:33:05.305Z,61.79
2022-11-29T09:35:32.046Z,62.20
2022-11-29T09:37:58.714Z,61.44
2022-11-29T09:40:27.654Z,60.47
2022-11-29T09:42:56.129Z,61.01
2022-11-29T09:45:27.411Z,62.42
2022-11-29T09:48:12.743Z,61.37
2022-11-29T09:50:45.768Z,62.23
2022-11-29T09:53:31.340Z,61.80
2022-11-29T09:55:57.763Z,61.29
2022-11-29T09:58:26.283Z,61.28
2022-11-29T10:00:58.401Z,60.10
2022-11-29T10:03:25.672Z,59.95
2022-11-29T10:06:02.923Z,61.57
2022-11-29T10:08:32.612Z,61.80
2022-11-29T10:11:05.840Z,61.38
2022-11-29T10:13:33.455Z,61.62
2022-11-29T10:16:01.643Z,61.53
2022-11-29T10:18:38.577Z,61.62
2022-11-29T10:21:06.947Z,60.76
2022-11-29T10:23:34.914Z,60.99
2022-11-29T10:26:01.345Z,61.14
2022-11-29T10:28:30.758Z,61.84
2022-11-29T10:30:58.633Z,61.62
2022-11-29T10:33:32.915Z,60.42
2022-11-29T10:36:00.013Z,61.61
2022-11-29T10:38:31.175Z,60.95
2022-11-29T10:40:59.208Z,61.04
2022-11-29T10:43:25.942Z,61.44
2022-11-29T10:45:55.994Z,61.51
2022-11-29T10:48:25.416Z,61.47
2022-11-29T10:50:52.264Z,62.19
2022-11-29T10:53:25.920Z,61.57
2022-11-29T10:55:55.502Z,62.51
2022-11-29T10:58:28.449Z,62.51
2022-11-29T11:00:55.449Z,62.94
2022-11-29T11:03:27.517Z,61.62
2022-11-29T11:05:57.107Z,61.99
2022-11-29T11:08:24.500Z,61.86
2022-11-29T11:11:01.274Z,61.85
2022-11-29T11:13:29.456Z,60.29
2022-11-29T11:15:56.837Z,59.24
2022-11-29T11:18:24.461Z,59.39
2022-11-29T11:20:55.008Z,59.44
2022-11-29T11:23:36.479Z,58.14
2022-11-29T11:26:07.648Z,58.68
2022-11-29T11:28:44.799Z,58.53
2022-11-29T11:31:11.476Z,58.94
2022-11-29T11:33:38.839Z,58.79
2022-11-29T11:36:06.773Z,57.94
2022-11-29T11:38:34.254Z,58.19
2022-11-29T11:41:04.307Z,58.54
2022-11-29T11:43:37.993Z,57.56
2022-11-29T11:46:07.893Z,58.06
2022-11-29T11:48:34.593Z,58.32
2022-11-29T11:51:00.991Z,59.32
2022-11-29T11:53:35.888Z,59.32
2022-11-29T11:56:03.352Z,59.18
2022-11-29T11:58:32.867Z,59.08
2022-11-29T12:01:08.414Z,58.49
2022-11-29T12:03:34.882Z,58.12
2022-11-29T12:06:21.776Z,58.21
2022-11-29T12:08:48.461Z,57.87
2022-11-29T12:11:15.854Z,58.36
2022-11-29T12:13:43.918Z,58.79
2022-11-29T12:16:14.897Z,59.18
2022-11-29T12:18:46.659Z,58.70
2022-11-29T12:21:14.507Z,57.98
2022-11-29T12:23:44.572Z,58.24
2022-11-29T12:26:41.159Z,58.13
2022-11-29T12:29:10.145Z,58.30
2022-11-29T12:31:36.745Z,57.84
2022-11-29T12:34:22.788Z,58.11
2022-11-29T12:37:02.405Z,58.31
2022-11-29T12:39:29.044Z,58.71
2022-11-29T12:41:56.663Z,58.76
2022-11-29T12:44:29.332Z,58.59
2022-11-29T12:47:34.640Z,57.70
2022-11-29T12:50:07.855Z,58.69
2022-11-29T12:52:37.303Z,58.65
2022-11-29T12:55:10.225Z,59.30
2022-11-29T12:57:42.977Z,59.62
2022-11-29T13:00:09.708Z,59.33
2022-11-29T13:03:02.744Z,59.04
2022-11-29T13:05:38.221Z,59.73
2022-11-29T13:08:10.812Z,59.27
2022-11-29T13:10:40.195Z,59.93
2022-11-29T13:13:25.672Z,59.51
2022-11-29T13:15:54.923Z,60.03
2022-11-29T13:18:21.349Z,59.71
2022-11-29T13:20:47.843Z,59.25
2022-11-29T13:23:46.190Z,59.90
2022-11-29T13:26:10.640Z,59.64
2022-11-29T13:28:40.550Z,59.71
2022-11-29T13:31:07.797Z,60.35
2022-11-29T13:33:40.457Z,60.14
2022-11-29T13:36:14.527Z,59.70
2022-11-29T13:38:59.732Z,59.93
2022-11-29T13:41:34.963Z,60.98
2022-11-29T13:44:02.613Z,61.17
2022-11-29T13:46:50.693Z,61.31
2022-11-29T13:49:20.917Z,61.57
2022-11-29T13:51:47.443Z,61.29
2022-11-29T13:54:25.581Z,61.18
2022-11-29T13:57:08.918Z,59.49
2022-11-29T13:59:44.160Z,59.66
2022-11-29T14:02:29.018Z,59.69
2022-11-29T14:04:55.674Z,59.85
2022-11-29T14:07:22.218Z,60.59
2022-11-29T14:09:48.659Z,60.83
2022-11-29T14:12:18.944Z,60.99
2022-11-29T14:14:52.712Z,61.20
2022-11-29T14:17:34.591Z,60.59
2022-11-29T14:20:19.751Z,60.69
2022-11-29T14:23:04.406Z,61.13
2022-11-29T14:28:17.661Z,60.95
2022-11-29T14:30:44.109Z,61.12
2022-11-29T14:33:13.370Z,60.13
2022-11-29T14:35:42.741Z,60.32
2022-11-29T14:38:15.433Z,61.54
2022-11-29T14:40:41.935Z,61.36
2022-11-29T14:43:25.400Z,61.40
2022-11-29T14:46:27.756Z,61.52
2022-11-29T14:48:55.854Z,61.88
2022-11-29T14:51:23.092Z,61.88
2022-11-29T14:53:51.591Z,62.44
2022-11-29T14:56:35.134Z,62.04
2022-11-29T14:59:20.744Z,63.30
2022-11-29T15:01:47.357Z,62.89
2022-11-29T15:04:14.073Z,63.99
2022-11-29T15:06:46.179Z,64.32
2022-11-29T15:09:17.571Z,64.70
2022-11-29T15:11:50.454Z,64.93
2022-11-29T15:14:23.467Z,65.69
2022-11-29T15:16:49.902Z,66.02
2022-11-29T15:19:31.615Z,66.87
2022-11-29T15:22:06.558Z,67.52
2022-11-29T15:24:48.957Z,68.42
2022-11-29T15:27:17.899Z,68.97
2022-11-29T15:29:48.224Z,68.48
2022-11-29T15:32:21.019Z,68.24
2022-11-29T15:34:50.235Z,68.20
2022-11-29T15:37:23.608Z,68.17
2022-11-29T15:40:00.410Z,68.26
2022-11-29T15:42:32.446Z,68.10
2022-11-29T15:44:59.134Z,68.25
2022-11-29T15:47:25.965Z,68.11
2022-11-29T15:49:52.823Z,68.03
2022-11-29T15:52:30.632Z,67.90
2022-11-29T15:54:59.468Z,68.13
2022-11-29T15:57:30.198Z,68.53
2022-11-29T16:00:01.095Z,68.52
2022-11-29T16:02:28.349Z,68.57
2022-11-29T16:04:56.076Z,68.46
2022-11-29T16:07:22.674Z,68.71
2022-11-29T16:09:59.722Z,68.61
2022-11-29T16:12:26.234Z,68.95
2022-11-29T16:14:53.614Z,68.88
2022-11-29T16:17:20.840Z,68.87
2022-11-29T16:19:47.583Z,69.20
2022-11-29T16:22:14.405Z,68.93
2022-11-29T16:25:01.464Z,68.72
2022-11-29T16:27:29.109Z,69.09
2022-11-29T16:29:55.701Z,69.34
2022-11-29T16:32:33.966Z,69.25
2022-11-29T16:35:14.121Z,69.44
2022-11-29T16:37:42.601Z,69.22
2022-11-29T16:40:27.982Z,69.49
2022-11-29T16:43:03.717Z,69.39
2022-11-29T16:45:30.130Z,69.73
2022-11-29T16:47:59.648Z,69.79
2022-11-29T16:50:26.994Z,69.60
2022-11-29T16:52:56.622Z,69.66
2022-11-29T16:55:23.539Z,69.73
2022-11-29T16:57:50.180Z,69.86
2022-11-29T17:00:30.605Z,69.99
2022-11-29T17:02:57.552Z,70.45
2022-11-29T17:05:24.028Z,70.05
2022-11-29T17:07:50.477Z,70.13
2022-11-29T17:10:18.021Z,70.07
2022-11-29T17:12:47.959Z,70.34
2022-11-29T17:15:14.808Z,70.73
2022-11-29T17:17:41.963Z,70.70
2022-11-29T17:20:08.623Z,70.43
2022-11-29T17:22:35.303Z,70.41
2022-11-29T17:25:01.755Z,71.01
2022-11-29T17:27:28.173Z,70.90
2022-11-29T17:29:54.595Z,70.76
2022-11-29T17:32:26.486Z,70.99
2022-11-29T17:34:53.456Z,70.85
2022-11-29T17:37:19.962Z,71.07
2022-11-29T17:39:48.537Z,71.12
2022-11-29T17:42:15.153Z,71.61
2022-11-29T17:44:41.953Z,71.31
2022-11-29T17:47:08.414Z,71.26
2022-11-29T17:49:34.941Z,71.20
2022-11-29T17:52:01.419Z,71.22
2022-11-29T17:54:28.136Z,71.03
2022-11-29T17:56:54.586Z,71.14
2022-11-29T17:59:21.247Z,71.06
2022-11-29T18:01:47.944Z,71.47
2022-11-29T18:04:14.543Z,71.16
2022-11-29T18:06:41.127Z,71.18
2022-11-29T18:09:08.654Z,71.23
2022-11-29T18:11:44.939Z,71.81
2022-11-29T18:14:13.651Z,71.77
2022-11-29T18:16:40.180Z,71.23
2022-11-29T18:19:07.727Z,71.53
2022-11-29T18:21:34.365Z,71.15
2022-11-29T18:24:00.966Z,71.72
2022-11-29T18:26:27.533Z,71.65
2022-11-29T18:28:54.051Z,71.61
2022-11-29T18:31:21.365Z,71.55
2022-11-29T18:33:48.347Z,71.68
2022-11-29T18:36:15.892Z,71.90
2022-11-29T18:38:42.893Z,71.97
2022-11-29T18:41:19.455Z,72.64
2022-11-29T18:43:46.165Z,72.25
2022-11-29T18:46:41.419Z,72.79
2022-11-29T18:49:23.220Z,72.33
2022-11-29T18:51:50.016Z,72.97
2022-11-29T18:54:17.169Z,73.02
2022-11-29T18:56:43.969Z,73.13
2022-11-29T18:59:20.678Z,72.47
2022-11-29T19:01:48.234Z,72.69
2022-11-29T19:04:19.330Z,72.98
2022-11-29T19:06:47.710Z,72.91
2022-11-29T19:09:15.477Z,73.20
2022-11-29T19:11:42.282Z,73.00
2022-11-29T19:14:12.962Z,73.62
2022-11-29T19:17:07.768Z,73.94
2022-11-29T19:19:34.604Z,73.56
2022-11-29T19:22:13.167Z,73.89
2022-11-29T19:24:41.794Z,74.30
2022-11-29T19:27:11.051Z,74.07
2022-11-29T19:29:39.856Z,73.76
2022-11-29T19:32:09.671Z,74.21
2022-11-29T19:34:36.211Z,74.35
2022-11-29T19:37:20.098Z,73.79
2022-11-29T19:40:01.275Z,73.87
2022-11-29T19:42:30.855Z,74.04
2022-11-29T19:47:56.413Z,74.47
2022-11-29T19:50:27.148Z,74.28
2022-11-29T19:53:01.493Z,74.61
2022-11-29T19:55:44.217Z,74.81
2022-11-29T19:58:11.019Z,74.88
2022-11-29T20:00:40.106Z,74.69
2022-11-29T20:03:08.866Z,74.48
2022-11-29T20:05:36.569Z,74.51
2022-11-29T20:08:03.273Z,74.08
2022-11-29T20:10:48.574Z,74.56
2022-11-29T20:13:15.190Z,74.23
2022-11-29T20:15:44.822Z,74.57
2022-11-29T20:18:21.268Z,74.79
2022-11-29T20:20:58.193Z,74.40
2022-11-29T20:23:40.510Z,74.57
2022-11-29T20:26:44.213Z,74.70
2022-11-29T20:29:16.013Z,74.56
2022-11-29T20:31:49.056Z,74.77
2022-11-29T20:34:16.907Z,73.91
2022-11-29T20:36:43.534Z,73.62
2022-11-29T20:39:22.281Z,74.24
2022-11-29T20:41:54.731Z,74.45
2022-11-29T20:44:22.001Z,74.41
2022-11-29T20:46:48.619Z,74.64
2022-11-29T20:49:15.288Z,74.38
2022-11-29T20:51:44.188Z,74.42
2022-11-29T20:54:11.231Z,74.59
2022-11-29T20:56:37.638Z,75.03
2022-11-29T20:59:04.083Z,75.11
2022-11-29T21:01:30.585Z,75.27
2022-11-29T21:03:57.142Z,74.90
2022-11-29T21:06:24.045Z,74.88
2022-11-29T21:08:51.218Z,74.66
2022-11-29T21:11:17.988Z,74.87
2022-11-29T21:13:44.588Z,74.83
2022-11-29T21:16:14.093Z,74.80
2022-11-29T21:18:43.984Z,75.35
2022-11-29T21:21:10.521Z,75.37
2022-11-29T21:23:45.346Z,75.48
2022-11-29T21:26:23.137Z,74.77
2022-11-29T21:28:53.564Z,75.20
2022-11-29T21:31:20.157Z,75.44
2022-11-29T21:33:46.899Z,75.47
2022-11-29T21:36:13.345Z,75.40
2022-11-29T21:38:39.798Z,75.53
2022-11-29T21:41:06.241Z,75.39
2022-11-29T21:44:04.352Z,74.96
2022-11-29T21:46:19.217Z,75.51
2022-11-29T21:48:45.670Z,75.22
2022-11-29T21:51:12.246Z,75.77
2022-11-29T21:53:38.782Z,75.52
2022-11-29T21:56:06.216Z,75.18
2022-11-29T21:58:33.120Z,75.28
2022-11-29T22:01:09.332Z,75.46
2022-11-29T22:03:35.839Z,74.76
2022-11-29T22:06:03.400Z,74.87
2022-11-29T22:08:30.229Z,74.98
2022-11-29T22:11:03.812Z,75.12
2022-11-29T22:13:30.377Z,75.00
2022-11-29T22:16:03.797Z,74.63
2022-11-29T22:18:30.319Z,75.13
2022-11-29T22:21:00.799Z,74.92
2022-11-29T22:23:27.511Z,74.81
2022-11-29T22:25:53.955Z,75.32
2022-11-29T22:28:20.413Z,75.79
2022-11-29T22:30:46.883Z,76.14
2022-11-29T22:33:15.335Z,76.08
2022-11-29T22:35:46.861Z,75.64
2022-11-29T22:38:13.269Z,76.42
2022-11-29T22:40:40.578Z,76.26
2022-11-29T22:43:07.184Z,76.37
2022-11-29T22:45:33.615Z,75.90
2022-11-29T22:48:00.053Z,75.85
2022-11-29T22:50:26.508Z,76.01
2022-11-29T22:52:53.524Z,75.47
2022-11-29T22:55:19.979Z,76.03
2022-11-29T22:57:46.436Z,75.68
2022-11-29T23:00:13.683Z,75.92
2022-11-29T23:02:40.213Z,75.64
2022-11-29T23:05:06.877Z,76.25
2022-11-29T23:07:33.368Z,75.78
2022-11-29T23:09:59.918Z,76.40
2022-11-29T23:12:38.868Z,76.17
2022-11-29T23:15:05.503Z,76.04
2022-11-29T23:17:31.985Z,76.05
2022-11-29T23:19:58.431Z,75.78
2022-11-29T23:22:25.024Z,76.22
2022-11-29T23:24:51.573Z,76.32
2022-11-29T23:27:18.029Z,76.49
2022-11-29T23:29:44.497Z,76.53
2022-11-29T23:32:10.959Z,76.17
2022-11-29T23:34:37.365Z,76.26
2022-11-29T23:37:04.830Z,76.09
2022-11-29T23:39:31.241Z,76.01
2022-11-29T23:41:57.669Z,75.95
2022-11-29T23:44:24.077Z,76.20
2022-11-29T23:46:50.541Z,76.38
2022-11-29T23:49:16.984Z,76.38
2022-11-29T23:51:43.616Z,75.93
2022-11-29T23:54:10.012Z,76.05
2022-11-29T23:56:36.425Z,76.06
2022-11-29T23:59:02.944Z,76.07
